Time;durP1;ratioP1;P1;durP2;ratioP2;P2;SDS_P1;SDS_P2;PMS_P1;PMS_P2;Temp;Humidity;BMP_temperature;BMP_pressure;BME280_temperature;BME280_humidity;BME280_pressure;Samples;Min_cycle;Max_cycle;Signal;HPM_P1;HPM_P2
2022/08/30 00:03:22;;;;;;;2.47;1.40;;;21.30;62.30;;;;;;5070638;28;20489;-73
2022/08/30 00:05:49;;;;;;;1.63;1.30;;;21.30;62.30;;;;;;5057612;28;20077;-73
2022/08/30 00:08:16;;;;;;;2.40;1.50;;;21.30;62.20;;;;;;5054713;28;20513;-73
2022/08/30 00:10:43;;;;;;;2.83;1.50;;;21.30;62.20;;;;;;5055315;28;20055;-73
2022/08/30 00:13:12;;;;;;;1.90;1.40;;;21.30;62.20;;;;;;5055919;28;20048;-73
2022/08/30 00:15:38;;;;;;;2.13;1.20;;;21.30;62.30;;;;;;5067777;28;20052;-73
2022/08/30 00:18:05;;;;;;;2.05;1.50;;;21.30;62.20;;;;;;5074626;28;20135;-72
2022/08/30 00:20:32;;;;;;;1.58;1.23;;;21.30;62.30;;;;;;5074396;28;20060;-73
2022/08/30 00:22:59;;;;;;;1.45;1.15;;;21.30;62.30;;;;;;5074030;28;20060;-73
2022/08/30 00:25:26;;;;;;;2.25;1.33;;;21.30;62.30;;;;;;5062613;28;20049;-73
2022/08/30 00:27:52;;;;;;;1.92;1.30;;;21.10;64.00;;;;;;5054408;28;20057;-73
2022/08/30 00:30:21;;;;;;;2.47;1.50;;;21.30;62.30;;;;;;5054172;28;20152;-73
2022/08/30 00:32:47;;;;;;;2.25;1.40;;;21.30;62.30;;;;;;5054356;28;20136;-73
2022/08/30 00:35:15;;;;;;;1.73;1.23;;;21.20;62.30;;;;;;5063713;28;20059;-73
2022/08/30 00:37:43;;;;;;;1.75;1.23;;;21.20;62.30;;;;;;5074145;28;20056;-73
2022/08/30 00:40:10;;;;;;;2.05;1.50;;;21.20;62.30;;;;;;5073785;28;20064;-73
2022/08/30 00:42:38;;;;;;;2.92;1.40;;;21.20;62.30;;;;;;5075221;28;20417;-73
2022/08/30 00:45:10;;;;;;;1.45;1.30;;;21.20;62.30;;;;;;5065299;28;20061;-73
2022/08/30 00:47:39;;;;;;;1.77;1.25;;;21.20;62.30;;;;;;5053857;28;20140;-73
2022/08/30 00:50:07;;;;;;;1.48;1.10;;;21.20;62.30;;;;;;5053502;28;20057;-73
2022/08/30 00:52:34;;;;;;;1.98;1.48;;;21.20;62.30;;;;;;5053962;28;20057;-73
2022/08/30 00:55:01;;;;;;;1.83;1.20;;;21.20;62.30;;;;;;5062036;28;20102;-73
2022/08/30 00:57:27;;;;;;;1.67;1.45;;;21.20;62.30;;;;;;5073631;28;20052;-73
2022/08/30 00:59:54;;;;;;;1.90;1.25;;;21.20;62.30;;;;;;5073532;28;20143;-73
2022/08/30 01:02:22;;;;;;;2.03;1.48;;;21.20;62.30;;;;;;5073620;28;20136;-73
2022/08/30 01:04:50;;;;;;;1.63;1.25;;;21.10;62.30;;;;;;5067784;28;20063;-72
2022/08/30 01:07:17;;;;;;;2.38;1.67;;;21.10;62.30;;;;;;5054670;28;20055;-73
2022/08/30 01:09:44;;;;;;;1.40;1.23;;;21.10;62.30;;;;;;5053399;28;20059;-73
2022/08/30 01:12:10;;;;;;;1.63;1.33;;;21.10;62.30;;;;;;5053193;28;20055;-73
2022/08/30 01:14:37;;;;;;;1.52;1.25;;;21.10;62.30;;;;;;5056733;28;20135;-73
2022/08/30 01:17:04;;;;;;;1.70;1.42;;;21.10;62.30;;;;;;5073836;28;20059;-73
2022/08/30 01:19:34;;;;;;;1.98;1.35;;;21.10;62.30;;;;;;5073113;28;20071;-72
2022/08/30 01:22:05;;;;;;;1.50;1.20;;;21.10;64.20;;;;;;5073259;28;20060;-73
2022/08/30 01:24:33;;;;;;;2.42;1.35;;;21.10;62.30;;;;;;5069984;28;20053;-73
2022/08/30 01:27:00;;;;;;;1.65;1.30;;;21.10;62.30;;;;;;5059820;28;20055;-73
2022/08/30 01:29:27;;;;;;;1.83;1.40;;;21.10;62.40;;;;;;5074230;28;20049;-73
2022/08/30 01:31:53;;;;;;;1.63;1.25;;;21.00;62.30;;;;;;5073096;28;20049;-72
2022/08/30 01:34:20;;;;;;;1.73;1.25;;;21.00;62.30;;;;;;5072994;28;20409;-73
2022/08/30 01:36:47;;;;;;;1.65;1.00;;;21.00;62.40;;;;;;5072236;28;20128;-73
2022/08/30 01:39:14;;;;;;;2.15;1.42;;;21.00;62.30;;;;;;5072851;28;20083;-72
2022/08/30 01:41:43;;;;;;;1.13;1.00;;;21.00;62.30;;;;;;5072908;28;20052;-73
2022/08/30 01:44:10;;;;;;;2.20;1.50;;;21.00;64.70;;;;;;5073790;28;20653;-73
2022/08/30 01:46:39;;;;;;;1.95;1.35;;;21.00;62.30;;;;;;5054238;28;20053;-73
2022/08/30 01:49:06;;;;;;;1.88;1.30;;;21.00;62.30;;;;;;5052890;28;20060;-73
2022/08/30 01:51:33;;;;;;;2.65;1.30;;;21.00;62.30;;;;;;5054852;28;20469;-73
2022/08/30 01:54:00;;;;;;;2.40;1.40;;;21.00;62.30;;;;;;5058568;28;20088;-72
2022/08/30 01:56:27;;;;;;;1.83;1.38;;;21.00;62.30;;;;;;5072757;28;20094;-73
2022/08/30 01:58:55;;;;;;;1.77;1.20;;;21.00;62.30;;;;;;5072410;28;20493;-72
2022/08/30 02:01:23;;;;;;;2.17;1.33;;;20.90;62.30;;;;;;5071043;28;20131;-72
2022/08/30 02:03:50;;;;;;;1.50;1.20;;;21.30;64.20;;;;;;5052606;28;20056;-73
2022/08/30 02:06:17;;;;;;;1.70;1.30;;;21.00;62.40;;;;;;5052466;28;20049;-73
2022/08/30 02:08:44;;;;;;;1.40;1.20;;;21.00;62.40;;;;;;5052638;28;20057;-73
2022/08/30 02:11:11;;;;;;;1.60;1.25;;;20.90;62.30;;;;;;5052068;28;20156;-73
2022/08/30 02:13:38;;;;;;;1.52;1.20;;;21.00;62.40;;;;;;5071455;28;20425;-73
2022/08/30 02:16:07;;;;;;;1.60;1.20;;;20.90;62.30;;;;;;5072353;28;20055;-73
2022/08/30 02:18:34;;;;;;;2.05;1.30;;;21.00;64.30;;;;;;5072400;28;20057;-73
2022/08/30 02:21:01;;;;;;;1.67;1.20;;;20.90;62.40;;;;;;5072911;28;20048;-72
2022/08/30 02:23:27;;;;;;;1.83;1.33;;;20.90;62.30;;;;;;5071639;28;20044;-73
2022/08/30 02:25:54;;;;;;;1.23;1.10;;;20.90;62.30;;;;;;5071845;28;20044;-73
2022/08/30 02:28:21;;;;;;;1.95;1.38;;;20.90;62.40;;;;;;5071167;28;20087;-72
2022/08/30 02:30:48;;;;;;;1.45;1.20;;;20.80;62.30;;;;;;5071722;28;20127;-73
2022/08/30 02:33:16;;;;;;;1.85;1.30;;;20.90;62.40;;;;;;5055864;28;20410;-73
2022/08/30 02:35:42;;;;;;;1.90;1.42;;;20.80;62.30;;;;;;5053028;28;20490;-73
2022/08/30 02:38:09;;;;;;;1.33;1.10;;;20.90;62.40;;;;;;5051865;28;20049;-72
2022/08/30 02:40:36;;;;;;;2.28;1.10;;;20.80;62.30;;;;;;5051757;28;20048;-73
2022/08/30 02:43:03;;;;;;;1.65;1.40;;;20.90;62.40;;;;;;5065783;28;20056;-73
2022/08/30 02:45:30;;;;;;;2.03;1.33;;;20.80;62.40;;;;;;5071522;28;20056;-73
2022/08/30 02:47:57;;;;;;;1.52;1.20;;;20.80;62.30;;;;;;5071447;28;20135;-73
2022/08/30 02:50:25;;;;;;;1.48;1.20;;;20.80;62.30;;;;;;5072575;28;20123;-73
2022/08/30 02:52:52;;;;;;;1.67;1.33;;;20.80;62.40;;;;;;5060008;28;20057;-72
2022/08/30 02:55:18;;;;;;;1.85;1.38;;;20.80;62.30;;;;;;5051596;28;20140;-73
2022/08/30 02:57:46;;;;;;;2.25;1.30;;;20.80;62.40;;;;;;5051426;28;20059;-73
2022/08/30 03:00:15;;;;;;;1.60;1.30;;;20.70;62.30;;;;;;5051335;28;20077;-73
2022/08/30 03:02:41;;;;;;;2.40;1.27;;;20.70;62.30;;;;;;5061537;28;20071;-73
2022/08/30 03:05:08;;;;;;;3.22;1.30;;;20.80;62.40;;;;;;5071187;28;20419;-73
2022/08/30 03:07:36;;;;;;;1.20;1.10;;;20.80;62.40;;;;;;5071135;28;20056;-73
2022/08/30 03:10:03;;;;;;;1.98;1.30;;;20.70;62.30;;;;;;5071509;28;20060;-71
2022/08/30 03:12:31;;;;;;;1.98;1.50;;;20.70;62.30;;;;;;5062385;28;20052;-71
2022/08/30 03:14:58;;;;;;;1.90;1.30;;;20.80;62.40;;;;;;5049105;28;20056;-73
2022/08/30 03:17:24;;;;;;;1.30;1.20;;;20.70;62.30;;;;;;5051020;28;20053;-73
2022/08/30 03:19:54;;;;;;;1.73;1.27;;;20.70;62.30;;;;;;5041500;28;20399;-71
2022/08/30 03:22:21;;;;;;;1.70;1.40;;;20.70;62.30;;;;;;5040289;28;20157;-71
2022/08/30 03:24:49;;;;;;;1.77;1.30;;;20.10;63.60;;;;;;5052096;28;20124;-71
2022/08/30 03:27:16;;;;;;;1.75;1.27;;;20.70;62.30;;;;;;5050787;28;20053;-72
2022/08/30 03:29:43;;;;;;;1.90;1.30;;;20.70;62.30;;;;;;5052102;28;20064;-73
2022/08/30 03:32:09;;;;;;;1.45;1.30;;;20.70;62.30;;;;;;5057096;28;20036;-72
2022/08/30 03:34:36;;;;;;;1.40;1.30;;;20.70;62.30;;;;;;5071542;28;20075;-75
2022/08/30 03:37:03;;;;;;;1.52;1.20;;;20.70;62.30;;;;;;5071012;28;20055;-73
2022/08/30 03:39:30;;;;;;;1.77;1.20;;;20.60;62.30;;;;;;5070565;28;20136;-75
2022/08/30 03:41:58;;;;;;;1.40;1.20;;;20.60;62.20;;;;;;5067073;28;20059;-74
2022/08/30 03:44:25;;;;;;;1.83;1.25;;;20.30;64.20;;;;;;5050623;28;20136;-74
2022/08/30 03:46:51;;;;;;;1.50;1.35;;;20.60;62.30;;;;;;5050383;28;20140;-74
2022/08/30 03:49:18;;;;;;;1.45;1.25;;;20.60;62.20;;;;;;5050689;28;20502;-74
2022/08/30 03:51:45;;;;;;;2.25;1.48;;;20.70;62.30;;;;;;5052014;28;20136;-72
2022/08/30 03:54:12;;;;;;;1.40;1.20;;;20.70;62.30;;;;;;5070768;28;20133;-72
2022/08/30 03:56:39;;;;;;;1.60;1.30;;;20.60;62.20;;;;;;5070939;28;20135;-72
2022/08/30 03:59:07;;;;;;;1.75;1.40;;;20.60;62.20;;;;;;5070333;28;20527;-73
2022/08/30 04:01:34;;;;;;;1.63;1.33;;;20.70;62.20;;;;;;5069924;28;20054;-73
2022/08/30 04:04:00;;;;;;;1.73;1.40;;;20.60;62.20;;;;;;5067261;28;20048;-74
2022/08/30 04:06:27;;;;;;;1.58;1.30;;;20.60;62.20;;;;;;5069089;28;20420;-74
2022/08/30 04:08:54;;;;;;;1.80;1.33;;;20.60;62.20;;;;;;5070036;28;20052;-73
2022/08/30 04:11:20;;;;;;;1.38;1.27;;;20.60;62.10;;;;;;5069885;28;20066;-73
2022/08/30 04:13:48;;;;;;;2.22;1.23;;;20.60;62.10;;;;;;5052338;28;20139;-74
2022/08/30 04:16:16;;;;;;;1.83;1.23;;;20.60;62.10;;;;;;5050712;28;20536;-73
2022/08/30 04:18:43;;;;;;;1.60;1.27;;;20.60;62.10;;;;;;5050770;28;20061;-73
2022/08/30 04:21:09;;;;;;;1.75;1.40;;;20.60;62.10;;;;;;5051769;28;20071;-74
2022/08/30 04:23:36;;;;;;;3.63;1.48;;;20.60;62.20;;;;;;5067233;28;20061;-73
2022/08/30 04:26:03;;;;;;;1.70;1.30;;;20.50;62.10;;;;;;5070455;28;20055;-73
2022/08/30 04:28:29;;;;;;;2.35;1.40;;;20.50;62.10;;;;;;5070385;28;20503;-73
2022/08/30 04:30:56;;;;;;;2.30;1.42;;;20.80;64.40;;;;;;5070693;28;20067;-73
2022/08/30 04:33:24;;;;;;;1.33;1.20;;;20.60;62.20;;;;;;5056795;28;20056;-73
2022/08/30 04:35:51;;;;;;;1.60;1.30;;;20.50;62.10;;;;;;5050329;28;20063;-73
2022/08/30 04:38:18;;;;;;;1.70;1.30;;;20.50;62.10;;;;;;5050413;28;20080;-73
2022/08/30 04:40:47;;;;;;;1.23;1.10;;;20.50;62.10;;;;;;5050320;28;20048;-72
2022/08/30 04:43:14;;;;;;;1.60;1.20;;;20.50;62.10;;;;;;5062128;28;20501;-73
2022/08/30 04:45:40;;;;;;;1.40;1.10;;;19.50;63.50;;;;;;5071820;28;20082;-73
2022/08/30 04:48:07;;;;;;;1.60;1.23;;;20.50;62.10;;;;;;5070481;28;20052;-73
2022/08/30 04:50:36;;;;;;;2.63;1.30;;;20.50;62.10;;;;;;5070087;28;20600;-73
2022/08/30 04:53:02;;;;;;;1.65;1.10;;;20.50;62.10;;;;;;5063749;28;20060;-73
2022/08/30 04:55:29;;;;;;;1.50;1.20;;;20.50;62.10;;;;;;5074968;28;20432;-72
2022/08/30 04:57:56;;;;;;;1.10;1.00;;;20.50;62.10;;;;;;5073989;28;20049;-74
2022/08/30 05:00:23;;;;;;;1.35;1.08;;;20.40;62.00;;;;;;5073866;28;20498;-73
2022/08/30 05:02:49;;;;;;;1.67;1.30;;;20.50;62.00;;;;;;5065581;28;20129;-73
2022/08/30 05:08:02;;;;;;;1.30;1.20;;;20.40;62.00;;;;;;5053690;28;20444;-73
2022/08/30 05:10:29;;;;;;;1.25;1.10;;;20.40;62.00;;;;;;5053734;28;20124;-73
2022/08/30 05:12:56;;;;;;;1.20;1.10;;;20.40;62.00;;;;;;5062159;28;20052;-73
2022/08/30 05:15:22;;;;;;;1.40;1.20;;;20.50;62.10;;;;;;5074689;28;20049;-73
2022/08/30 05:17:49;;;;;;;1.60;1.10;;;20.80;64.00;;;;;;5074895;28;20044;-73
2022/08/30 05:20:16;;;;;;;1.90;1.13;;;20.40;62.00;;;;;;5074585;28;20489;-72
2022/08/30 05:22:48;;;;;;;1.83;1.23;;;20.40;62.00;;;;;;5067017;28;20063;-73
2022/08/30 05:25:17;;;;;;;1.30;1.20;;;20.40;62.00;;;;;;5054535;28;20490;-73
2022/08/30 05:27:43;;;;;;;2.38;1.10;;;20.40;64.70;;;;;;5053447;28;20150;-73
2022/08/30 05:30:12;;;;;;;1.25;1.10;;;20.40;62.10;;;;;;5053253;28;20059;-73
2022/08/30 05:32:38;;;;;;;1.98;1.30;;;20.40;62.00;;;;;;5058899;28;20055;-73
2022/08/30 05:35:06;;;;;;;1.67;1.10;;;20.40;62.00;;;;;;5073507;28;20153;-73
2022/08/30 05:37:32;;;;;;;1.52;1.08;;;20.40;62.00;;;;;;5073499;28;20053;-73
2022/08/30 05:40:00;;;;;;;2.08;1.30;;;20.40;62.00;;;;;;5073311;28;20053;-73
2022/08/30 05:42:28;;;;;;;1.48;1.27;;;20.40;62.00;;;;;;5069570;28;20049;-73
2022/08/30 05:44:55;;;;;;;1.27;1.17;;;20.40;62.00;;;;;;5053715;28;20083;-73
2022/08/30 05:47:21;;;;;;;2.10;1.20;;;20.30;62.00;;;;;;5054481;28;20053;-73
2022/08/30 05:49:48;;;;;;;1.40;1.10;;;20.40;62.00;;;;;;5053201;28;20136;-73
2022/08/30 05:52:16;;;;;;;1.38;1.15;;;20.40;62.00;;;;;;5052768;28;20397;-72
2022/08/30 05:54:43;;;;;;;1.27;1.10;;;20.40;61.90;;;;;;5051535;28;20087;-72
2022/08/30 05:57:10;;;;;;;2.45;1.30;;;20.40;61.90;;;;;;5053565;28;20128;-72
2022/08/30 05:59:38;;;;;;;1.42;1.15;;;20.40;61.90;;;;;;5053629;28;20072;-72
2022/08/30 06:02:06;;;;;;;1.38;1.17;;;20.40;61.90;;;;;;5052662;28;20147;-72
2022/08/30 06:04:32;;;;;;;1.15;1.02;;;20.40;61.90;;;;;;5073547;28;20053;-72
2022/08/30 06:06:59;;;;;;;1.20;1.10;;;20.30;61.90;;;;;;5073823;28;20428;-72
2022/08/30 06:09:26;;;;;;;1.15;1.00;;;20.30;61.90;;;;;;5073751;28;20131;-73
2022/08/30 06:11:52;;;;;;;1.27;1.17;;;20.30;61.90;;;;;;5072206;28;20084;-73
2022/08/30 06:14:19;;;;;;;1.20;1.10;;;20.30;61.90;;;;;;5053270;28;20056;-72
2022/08/30 06:16:48;;;;;;;1.27;1.17;;;20.30;61.90;;;;;;5052110;28;20053;-73
2022/08/30 06:19:15;;;;;;;2.15;1.30;;;20.30;62.00;;;;;;5050473;28;20057;-73
2022/08/30 06:21:42;;;;;;;1.73;1.30;;;20.30;62.00;;;;;;5053415;28;20053;-71
2022/08/30 06:24:10;;;;;;;4.57;1.42;;;20.30;62.00;;;;;;5072376;28;20094;-73
2022/08/30 06:26:37;;;;;;;2.45;1.27;;;20.30;62.00;;;;;;5072350;28;20482;-72
2022/08/30 06:29:04;;;;;;;1.80;1.15;;;20.30;62.10;;;;;;5072028;28;20773;-72
2022/08/30 06:31:31;;;;;;;2.65;1.30;;;20.30;62.10;;;;;;5072066;28;20052;-72
2022/08/30 06:33:59;;;;;;;1.40;1.20;;;20.40;62.20;;;;;;5052873;28;20048;-72
2022/08/30 06:36:25;;;;;;;2.10;1.33;;;20.40;62.20;;;;;;5053418;28;20071;-74
2022/08/30 06:38:53;;;;;;;2.85;1.20;;;20.30;62.20;;;;;;5053012;28;20091;-74
2022/08/30 06:41:21;;;;;;;3.28;1.30;;;20.40;62.20;;;;;;5051830;28;20052;-74
2022/08/30 06:43:48;;;;;;;4.35;1.40;;;20.30;62.20;;;;;;5069031;28;20056;-74
2022/08/30 06:46:15;;;;;;;2.70;1.30;;;20.30;62.20;;;;;;5072903;28;20106;-73
2022/08/30 06:48:42;;;;;;;3.90;1.33;;;20.40;62.20;;;;;;5067083;28;20127;-74
2022/08/30 06:51:10;;;;;;;3.53;1.33;;;20.40;62.20;;;;;;5051593;28;20052;-74
2022/08/30 06:53:37;;;;;;;2.28;1.10;;;20.40;62.10;;;;;;5067057;28;20489;-74
2022/08/30 06:56:07;;;;;;;2.17;1.10;;;20.40;62.10;;;;;;5072744;28;20044;-72
2022/08/30 06:58:35;;;;;;;3.60;1.30;;;20.50;62.10;;;;;;5053152;28;20041;-71
2022/08/30 07:01:01;;;;;;;2.17;1.30;;;20.60;62.00;;;;;;5051513;28;20501;-71
2022/08/30 07:03:28;;;;;;;3.20;1.20;;;20.60;61.90;;;;;;5051414;28;20132;-71
2022/08/30 07:05:55;;;;;;;2.90;1.17;;;20.60;61.70;;;;;;5051308;28;20127;-72
2022/08/30 07:08:24;;;;;;;1.27;1.00;;;20.80;61.70;;;;;;5051443;28;20154;-71
2022/08/30 07:10:51;;;;;;;1.50;1.05;;;20.90;61.60;;;;;;5052342;28;20056;-71
2022/08/30 07:13:18;;;;;;;1.55;1.20;;;20.90;61.50;;;;;;5063990;28;20131;-71
2022/08/30 07:15:45;;;;;;;1.95;1.13;;;20.90;61.40;;;;;;5050955;28;20056;-71
2022/08/30 07:20:56;;;;;;;1.77;1.10;;;21.00;61.30;;;;;;5048716;28;20410;-71
2022/08/30 07:23:25;;;;;;;2.30;1.23;;;19.60;62.50;;;;;;5052932;28;20057;-71
2022/08/30 07:25:51;;;;;;;3.25;1.40;;;21.00;61.30;;;;;;5049932;28;20060;-72
2022/08/30 07:28:18;;;;;;;4.93;1.77;;;20.90;61.20;;;;;;5048793;28;20131;-71
2022/08/30 07:30:45;;;;;;;4.55;1.30;;;20.90;61.20;;;;;;5050579;28;20056;-71
2022/08/30 07:33:12;;;;;;;5.10;1.70;;;20.90;61.20;;;;;;5050763;28;20049;-71
2022/08/30 07:35:38;;;;;;;6.88;1.67;;;20.90;61.20;;;;;;5051056;28;20053;-71
2022/08/30 07:38:05;;;;;;;4.93;1.90;;;20.90;61.20;;;;;;5050464;28;20132;-71
2022/08/30 07:40:33;;;;;;;4.35;1.85;;;20.90;61.20;;;;;;5051154;28;20552;-73
2022/08/30 07:43:01;;;;;;;4.97;1.98;;;20.80;61.20;;;;;;5050924;28;20107;-72
2022/08/30 07:45:27;;;;;;;5.43;1.60;;;20.80;61.20;;;;;;5050822;28;20102;-72
2022/08/30 07:47:54;;;;;;;6.05;1.90;;;20.90;61.30;;;;;;5051942;28;20045;-72
2022/08/30 07:50:21;;;;;;;7.75;1.80;;;20.80;61.20;;;;;;5051550;28;20052;-72
2022/08/30 07:52:47;;;;;;;4.13;1.63;;;20.80;61.30;;;;;;5057578;28;20084;-72
2022/08/30 07:55:15;;;;;;;8.40;2.22;;;20.80;61.30;;;;;;5071845;28;20041;-73
2022/08/30 07:57:43;;;;;;;7.45;1.80;;;20.80;61.30;;;;;;5071398;28;20086;-72
2022/08/30 08:00:10;;;;;;;9.88;1.98;;;20.80;61.30;;;;;;5070358;28;20052;-72
2022/08/30 08:02:39;;;;;;;8.50;2.13;;;20.70;61.30;;;;;;5065254;28;20084;-72
2022/08/30 08:05:08;;;;;;;3.70;1.60;;;20.70;63.80;;;;;;5050585;28;20075;-72
2022/08/30 08:07:35;;;;;;;5.15;1.73;;;20.70;61.40;;;;;;5050407;28;20057;-72
2022/08/30 08:10:01;;;;;;;5.88;1.80;;;20.70;61.50;;;;;;5050343;28;20135;-72
2022/08/30 08:12:28;;;;;;;3.70;1.50;;;20.80;61.50;;;;;;5055012;28;20072;-72
2022/08/30 08:14:56;;;;;;;4.47;1.90;;;20.70;61.50;;;;;;5070297;28;20425;-72
2022/08/30 08:17:23;;;;;;;4.28;1.65;;;20.80;61.60;;;;;;5071804;28;20044;-72
2022/08/30 08:19:49;;;;;;;3.78;1.55;;;20.80;64.40;;;;;;5070575;28;20135;-73
2022/08/30 08:22:16;;;;;;;4.35;1.90;;;20.70;61.60;;;;;;5069413;28;20128;-72
2022/08/30 08:24:43;;;;;;;4.22;1.85;;;21.60;64.40;;;;;;5069816;28;20052;-74
2022/08/30 08:27:09;;;;;;;4.07;1.48;;;20.80;61.60;;;;;;5063344;28;20057;-74
2022/08/30 08:29:36;;;;;;;4.22;1.67;;;20.80;61.60;;;;;;5054182;28;20127;-74
2022/08/30 08:32:05;;;;;;;2.90;1.50;;;20.80;61.60;;;;;;5055742;28;20045;-74
2022/08/30 08:34:31;;;;;;;2.88;1.40;;;20.80;61.50;;;;;;5069104;28;20128;-73
2022/08/30 08:36:58;;;;;;;4.25;1.65;;;20.90;61.50;;;;;;5055359;28;20056;-74
2022/08/30 08:39:25;;;;;;;4.03;1.40;;;20.90;61.40;;;;;;5054408;28;20048;-74
2022/08/30 08:41:56;;;;;;;5.15;1.70;;;20.90;61.40;;;;;;5053678;28;20135;-72
2022/08/30 08:44:29;;;;;;;2.95;1.40;;;21.00;61.40;;;;;;5055904;28;20040;-74
2022/08/30 08:46:58;;;;;;;3.28;1.63;;;21.00;61.40;;;;;;5054018;28;20057;-74
2022/08/30 08:49:26;;;;;;;2.70;1.40;;;20.90;61.30;;;;;;5053969;28;20045;-75
2022/08/30 08:54:39;;;;;;;;;;;21.00;61.30;;;;;;5069067;28;20048;-74
2022/08/30 08:57:05;;;;;;;2.63;1.40;;;20.90;61.30;;;;;;5074124;28;19920;-75
2022/08/30 08:59:32;;;;;;;2.65;1.05;;;21.00;61.50;;;;;;5074806;28;20131;-75
2022/08/30 09:02:01;;;;;;;2.38;1.17;;;21.00;61.40;;;;;;5073680;28;20059;-74
2022/08/30 09:04:33;;;;;;;2.30;1.30;;;21.00;61.40;;;;;;5073480;28;20063;-75
2022/08/30 09:07:02;;;;;;;2.17;1.40;;;21.00;61.40;;;;;;5073587;28;20131;-75
2022/08/30 09:09:31;;;;;;;2.70;1.50;;;21.00;61.40;;;;;;5073458;28;20381;-71
2022/08/30 09:11:58;;;;;;;3.28;1.30;;;21.00;61.40;;;;;;5074524;28;20131;-71
2022/08/30 09:14:27;;;;;;;2.47;1.33;;;21.00;61.40;;;;;;5053969;28;20055;-70
2022/08/30 09:16:58;;;;;;;2.85;1.40;;;21.00;61.40;;;;;;5054512;28;20059;-71
2022/08/30 09:19:32;;;;;;;3.53;1.40;;;21.00;61.40;;;;;;5053771;28;20490;-74
2022/08/30 09:21:58;;;;;;;3.33;1.30;;;21.00;61.40;;;;;;5054412;28;20132;-74
2022/08/30 09:24:25;;;;;;;2.70;1.25;;;21.00;61.40;;;;;;5054519;28;20063;-72
2022/08/30 09:26:52;;;;;;;2.65;1.50;;;21.00;61.40;;;;;;5053283;28;20091;-71
2022/08/30 09:29:19;;;;;;;2.60;1.35;;;21.00;61.40;;;;;;5053112;28;20092;-70
2022/08/30 09:31:47;;;;;;;2.30;1.35;;;21.10;61.40;;;;;;5053069;28;20128;-72
2022/08/30 09:34:17;;;;;;;3.78;1.33;;;21.00;61.40;;;;;;5071609;28;20048;-72
2022/08/30 09:36:48;;;;;;;1.95;1.30;;;21.10;61.40;;;;;;5073265;28;20139;-71
2022/08/30 09:39:18;;;;;;;3.70;1.10;;;21.10;61.30;;;;;;5072589;28;20059;-72
2022/08/30 09:41:47;;;;;;;2.10;1.08;;;21.10;61.30;;;;;;5072882;28;20133;-72
2022/08/30 09:44:15;;;;;;;3.05;1.38;;;21.10;61.30;;;;;;5070659;28;20098;-72
2022/08/30 09:46:47;;;;;;;2.45;1.50;;;21.20;61.40;;;;;;5074213;28;20076;-73
2022/08/30 09:49:29;;;;;;;6.63;1.35;;;21.20;61.40;;;;;;5073061;28;20044;-73
2022/08/30 09:52:02;;;;;;;3.35;1.20;;;21.20;61.40;;;;;;5072615;28;20056;-72
2022/08/30 09:54:33;;;;;;;2.40;1.30;;;21.20;61.30;;;;;;5062801;28;20058;-74
2022/08/30 09:57:03;;;;;;;1.50;1.20;;;21.30;61.40;;;;;;5053927;28;20041;-74
2022/08/30 09:59:39;;;;;;;1.85;1.25;;;21.30;61.30;;;;;;5052968;28;20055;-72
2022/08/30 10:02:12;;;;;;;1.85;1.40;;;21.30;61.30;;;;;;5053439;28;20135;-73
2022/08/30 10:04:43;;;;;;;1.90;1.15;;;21.30;61.30;;;;;;5072593;28;20052;-74
2022/08/30 10:07:13;;;;;;;2.40;1.15;;;21.30;61.20;;;;;;5073802;28;20047;-74
2022/08/30 10:09:43;;;;;;;3.53;1.40;;;21.30;61.20;;;;;;5072562;28;20547;-73
2022/08/30 10:12:12;;;;;;;2.40;1.10;;;21.30;61.20;;;;;;5054854;28;20477;-70
2022/08/30 10:14:46;;;;;;;2.47;1.35;;;21.30;61.20;;;;;;5052565;28;20052;-71
2022/08/30 10:17:18;;;;;;;2.13;1.00;;;21.40;61.20;;;;;;5052442;28;20143;-73
2022/08/30 10:20:02;;;;;;;2.05;1.08;;;21.40;61.20;;;;;;5052595;28;20045;-72
2022/08/30 10:22:31;;;;;;;2.50;1.20;;;21.60;61.30;;;;;;5032611;28;20054;-72
2022/08/30 10:25:02;;;;;;;1.70;1.13;;;21.40;61.20;;;;;;5032503;28;20505;-71
2022/08/30 10:27:31;;;;;;;3.10;1.20;;;21.50;61.20;;;;;;5032288;28;20053;-71
2022/08/30 10:30:01;;;;;;;1.98;1.00;;;21.50;61.20;;;;;;5031955;28;20059;-72
2022/08/30 10:32:29;;;;;;;1.23;1.00;;;21.50;61.10;;;;;;5033545;28;20053;-71
2022/08/30 10:34:57;;;;;;;1.58;1.10;;;21.60;61.20;;;;;;5032273;28;20081;-74
2022/08/30 10:37:25;;;;;;;2.35;1.30;;;21.60;61.10;;;;;;5031834;28;20053;-72
2022/08/30 10:39:54;;;;;;;1.13;1.00;;;21.60;61.10;;;;;;5032284;28;20051;-74
2022/08/30 10:42:23;;;;;;;1.92;1.10;;;21.60;61.00;;;;;;5071711;28;20045;-74
2022/08/30 10:44:52;;;;;;;1.50;1.10;;;21.60;61.00;;;;;;5071947;28;20139;-72
2022/08/30 10:47:24;;;;;;;1.42;1.05;;;21.60;61.00;;;;;;5073072;28;20044;-74
2022/08/30 10:49:53;;;;;;;1.23;1.00;;;21.70;61.00;;;;;;5070603;28;20405;-74
2022/08/30 10:52:23;;;;;;;1.70;1.20;;;21.70;61.00;;;;;;5066223;28;20535;-74
2022/08/30 10:54:51;;;;;;;2.88;1.58;;;21.70;61.00;;;;;;5072640;28;20044;-72
2022/08/30 10:57:19;;;;;;;1.50;1.10;;;21.70;60.90;;;;;;5071827;28;20083;-72
2022/08/30 10:59:51;;;;;;;1.58;1.08;;;21.70;60.90;;;;;;5071670;28;20056;-71
2022/08/30 11:02:38;;;;;;;1.60;1.10;;;21.70;60.90;;;;;;5052638;28;20460;-70
2022/08/30 11:05:14;;;;;;;2.42;1.20;;;21.80;60.90;;;;;;5051603;28;20381;-71
2022/08/30 11:07:42;;;;;;;2.70;1.00;;;21.80;60.90;;;;;;5051470;28;20135;-73
2022/08/30 11:10:18;;;;;;;2.55;0.90;;;21.80;60.80;;;;;;5052527;28;20143;-74
2022/08/30 11:12:54;;;;;;;1.35;1.05;;;21.80;60.80;;;;;;5071189;28;20058;-74
2022/08/30 11:15:23;;;;;;;1.58;1.10;;;21.80;60.80;;;;;;5070979;28;20053;-74
2022/08/30 11:17:55;;;;;;;2.67;1.20;;;21.90;60.80;;;;;;5071457;28;20052;-74
2022/08/30 11:20:28;;;;;;;1.15;1.02;;;21.90;60.70;;;;;;5068720;28;20048;-74
2022/08/30 11:23:26;;;;;;;1.38;1.05;;;21.90;60.70;;;;;;5051411;28;20053;-73
2022/08/30 11:25:54;;;;;;;2.33;0.80;;;21.90;60.70;;;;;;5007500;28;20056;-74
2022/08/30 11:28:58;;;;;;;1.00;0.90;;;21.90;60.70;;;;;;5051159;28;20136;-72
2022/08/30 11:31:44;;;;;;;1.73;1.10;;;22.00;60.70;;;;;;5062286;28;20405;-75
2022/08/30 11:34:10;;;;;;;1.52;1.00;;;22.00;61.20;;;;;;5053546;28;20417;-74
2022/08/30 11:37:04;;;;;;;2.90;1.10;;;22.00;60.60;;;;;;5050838;28;20399;-75
2022/08/30 11:39:59;;;;;;;1.50;0.90;;;22.00;60.50;;;;;;5050763;28;20057;-75
2022/08/30 11:42:32;;;;;;;1.38;1.00;;;22.00;60.40;;;;;;5050602;28;20127;-75
2022/08/30 11:45:42;;;;;;;1.20;1.10;;;22.10;60.40;;;;;;5050637;28;20136;-75
2022/08/30 11:48:47;;;;;;;1.80;1.10;;;22.10;60.30;;;;;;5052044;28;20405;-75
2022/08/30 11:51:33;;;;;;;1.10;1.00;;;22.10;60.30;;;;;;5058401;28;20041;-75
2022/08/30 11:54:02;;;;;;;1.20;0.90;;;22.20;60.20;;;;;;5070168;28;20056;-74
2022/08/30 11:56:31;;;;;;;1.67;1.10;;;22.20;60.00;;;;;;5070550;28;20135;-75
2022/08/30 11:59:01;;;;;;;1.58;1.02;;;22.20;60.00;;;;;;5070734;28;20090;-75
2022/08/30 12:01:35;;;;;;;1.20;0.98;;;22.20;60.00;;;;;;5065547;28;20135;-74
2022/08/30 12:04:06;;;;;;;1.65;1.17;;;22.30;59.90;;;;;;5070564;28;20059;-74
2022/08/30 12:06:50;;;;;;;3.10;1.00;;;22.20;59.90;;;;;;5070674;28;20391;-71
2022/08/30 12:10:02;;;;;;;4.23;1.50;;;22.30;60.00;;;;;;5070457;28;20126;-71
2022/08/30 12:13:02;;;;;;;2.13;1.20;;;22.30;60.20;;;;;;5050766;28;20462;-71
2022/08/30 12:15:58;;;;;;;2.67;1.30;;;22.30;60.70;;;;;;4990163;28;20058;-71
2022/08/30 12:18:30;;;;;;;1.50;1.20;;;22.30;60.70;;;;;;4973795;28;20054;-71
2022/08/30 12:21:01;;;;;;;4.55;1.30;;;22.30;61.20;;;;;;5036047;28;20549;-71
2022/08/30 12:23:34;;;;;;;2.63;1.40;;;22.30;61.10;;;;;;5030641;28;20080;-72
2022/08/30 12:26:13;;;;;;;2.05;1.15;;;22.30;61.00;;;;;;5030401;28;20046;-72
2022/08/30 12:28:39;;;;;;;2.40;1.40;;;22.40;61.20;;;;;;5031390;28;20057;-72
2022/08/30 12:31:08;;;;;;;3.90;1.40;;;22.40;62.30;;;;;;5043477;28;20529;-74
2022/08/30 12:33:38;;;;;;;2.67;1.20;;;22.40;61.00;;;;;;5070563;28;20052;-71
2022/08/30 12:36:07;;;;;;;3.92;1.10;;;22.40;60.80;;;;;;5070353;28;20139;-72
2022/08/30 12:38:34;;;;;;;5.45;1.33;;;22.30;60.80;;;;;;5071488;28;20048;-71
2022/08/30 12:41:01;;;;;;;6.82;1.33;;;22.40;61.00;;;;;;5066107;28;20119;-73
2022/08/30 12:43:31;;;;;;;1.85;1.10;;;22.40;61.00;;;;;;5050262;28;20053;-73
2022/08/30 12:45:58;;;;;;;2.83;1.30;;;21.60;61.60;;;;;;5050090;28;20059;-74
2022/08/30 12:48:25;;;;;;;4.78;1.20;;;22.30;60.90;;;;;;5050318;28;20474;-74
2022/08/30 12:50:53;;;;;;;2.05;1.20;;;22.40;60.90;;;;;;5050348;28;20053;-74
2022/08/30 12:53:27;;;;;;;1.85;0.95;;;22.40;60.80;;;;;;5068212;28;20052;-75
2022/08/30 12:55:58;;;;;;;3.23;1.30;;;22.50;60.80;;;;;;5070291;28;20057;-74
2022/08/30 12:58:35;;;;;;;2.53;1.27;;;22.40;60.70;;;;;;5071431;28;20079;-72
2022/08/30 13:01:19;;;;;;;1.60;1.00;;;22.40;60.70;;;;;;5065647;28;20051;-72
2022/08/30 13:03:57;;;;;;;4.45;1.40;;;22.40;60.60;;;;;;5068096;28;20084;-71
2022/08/30 13:06:40;;;;;;;2.03;1.10;;;22.40;60.70;;;;;;5068346;28;20058;-72
2022/08/30 13:09:09;;;;;;;4.38;1.05;;;22.40;60.50;;;;;;5070047;28;20079;-73